Flight Track Log - Related Links

Times and Time Zones

All times are in EDT time to prevent confusion due to time zone crossing. See the SKW6330 flight status page for this flight to view local times or setup timezone preferences in your user account.

Time Position Orientation Groundspeed Altitude Reporting Facility
EDT Latitude Longitude Course Direction KTS MPH feet Rate Location/Type
Wed 08:47:04 PM 33.9500 -118.4667 335° Northwest 165 190 1,900  Level Southern California TRACON
Wed 08:48:00 PM 33.9564 -118.5208 278° West 191 220 3,400 1,373 Climbing Los Angeles Center
Wed 08:49:02 PM 33.9833 -118.5797 299° West 203 234 4,600 1,258 Climbing Los Angeles Center
Wed 08:50:04 PM 34.0183 -118.6361 307° West 216 249 6,000 1,161 Climbing Los Angeles Center
Wed 08:51:00 PM 34.2924 -118.5879 338° Northwest  Level FlightAware Approximate
Wed 08:51:06 PM 34.0831 -118.6531 348° North 219 252 7,000  Level Los Angeles Center
Wed 08:52:00 PM 34.3526 -118.6199 335° Northwest  Level FlightAware Approximate
Wed 08:52:08 PM 34.1467 -118.6572 357° North 223 257 7,900  Level Los Angeles Center
Wed 08:53:10 PM 34.2144 -118.6617 357° North 233 268 8,000 390 Climbing Los Angeles Center
Wed 08:54:11 PM 34.2839 -118.6653 358° North 245 282 8,700 732 Climbing Los Angeles Center
Wed 08:55:13 PM 34.3392 -118.6686 357° North 248 285 9,500 1,016 Climbing Los Angeles Center
Wed 08:56:15 PM 34.4183 -118.6892 348° North 248 285 10,800 1,306 Climbing Los Angeles Center
Wed 08:57:17 PM 34.4797 -118.7247 334° Northwest 242 278 12,200 1,500 Climbing Los Angeles Center
Wed 08:58:19 PM 34.5494 -118.7550 340° North 219 252 13,900 1,182 Climbing Los Angeles Center
Wed 08:59:34 PM 34.6069 -118.7767 343° North 217 250 14,900 920 Climbing Los Angeles Center
Wed 09:00:36 PM 34.6797 -118.8028 344° North 227 261 16,000 919 Climbing Los Angeles Center
Wed 09:01:38 PM 34.7400 -118.8300 340° North 229 264 16,800 774 Climbing Los Angeles Center
Wed 09:02:40 PM 34.8028 -118.8581 340° North 238 274 17,600 774 Climbing Los Angeles Center
Wed 09:03:42 PM 34.8683 -118.8725 350° North 241 277 18,400 774 Climbing Los Angeles Center
Wed 09:04:44 PM 34.9433 -118.8803 355° North 243 280 19,200 732 Climbing Los Angeles Center
Wed 09:05:45 PM 35.0108 -118.8914 352° North 245 282 19,900 390 Climbing Los Angeles Center
Wed 09:06:47 PM 35.0806 -118.9028 352° North 251 289 20,000 48 Climbing Los Angeles Center
Wed 09:07:49 PM 35.1533 -118.9131 353° North 262 302 20,000  Level Los Angeles Center
Wed 09:08:51 PM 35.2369 -118.9250 353° North 256 295 20,000  Level Los Angeles Center
Wed 09:09:53 PM 35.3072 -118.9322 355° North 254 292 20,000  Level Los Angeles Center
Wed 09:10:55 PM 35.3778 -118.9425 353° North 255 293 20,000  Level Los Angeles Center
Wed 09:11:56 PM 35.4458 -118.9531 353° North 250 288 20,000  Level Los Angeles Center
Wed 09:12:58 PM 35.5161 -118.9642 353° North 253 291 20,000  Level Los Angeles Center
Wed 09:14:00 PM 35.5847 -118.9742 353° North 251 289 20,000  Level Los Angeles Center
Wed 09:15:02 PM 35.6686 -118.9864 353° North 253 291 20,000  Level Los Angeles Center
Wed 09:16:04 PM 35.7381 -118.9961 354° North 251 289 20,000  Level Los Angeles Center
Wed 09:17:05 PM 35.8075 -119.0081 352° North 252 290 20,000  Level Los Angeles Center
Wed 09:18:19 PM 35.8756 -119.0197 352° North 249 287 20,000 -569 Level Los Angeles Center
Wed 09:19:22 PM 35.9611 -119.0433 347° North 264 304 18,700 -1,645 Descending Los Angeles Center
Wed 09:20:23 PM 36.0369 -119.0761 341° North 286 329 16,600 -2,262 Descending Oakland Center
Wed 09:21:24 PM 36.1314 -119.1272 336° Northwest 302 348 14,100 -1,268 Descending Oakland Center
Wed 09:22:26 PM 36.2047 -119.1664 337° Northwest 297 342 14,000 -98 Descending Oakland Center
Wed 09:23:27 PM 36.2742 -119.1975 340° North 271 312 13,900 -732 Descending Oakland Center
Wed 09:24:29 PM 36.3444 -119.2300 340° North 272 313 12,500 -1,512 Descending Oakland Center
Wed 09:25:30 PM 36.4175 -119.2625 340° North 278 320 10,800 -1,623 Descending Oakland Center
Wed 09:26:31 PM 36.4914 -119.2953 340° North 282 325 9,200 -1,610 Descending Oakland Center
Wed 09:27:33 PM 36.5575 -119.3356 334° Northwest 270 311 7,500 -1,561 Descending Oakland Center
Wed 09:28:34 PM 36.5983 -119.4103 304° West 259 298 6,000 -1,659 Descending Oakland Center
Wed 09:29:36 PM 36.6456 -119.4933 305° West 246 283 4,100 -1,220 Descending Oakland Center
Wed 09:30:37 PM 36.6850 -119.5594 307° West 241 277 3,500 -590 Descending Oakland Center

Login

Don't have an account? Register now (free) for customized features, flight alerts, and more!